createdAt,value
2018-03-31T00:01:19.696Z,1.27
2018-03-31T00:03:46.782Z,1.60
2018-03-31T00:06:13.805Z,1.77
2018-03-31T00:08:40.844Z,1.63
2018-03-31T00:11:07.930Z,2.07
2018-03-31T00:13:35.015Z,1.30
2018-03-31T00:16:02.168Z,1.43
2018-03-31T00:18:29.242Z,1.87
2018-03-31T00:20:56.258Z,1.70
2018-03-31T00:23:23.342Z,1.23
2018-03-31T00:25:50.431Z,1.80
2018-03-31T00:28:17.462Z,2.03
2018-03-31T00:30:44.488Z,2.43
2018-03-31T00:33:11.574Z,1.60
2018-03-31T00:35:38.590Z,2.07
2018-03-31T00:38:05.607Z,1.87
2018-03-31T00:40:32.637Z,1.10
2018-03-31T00:42:59.662Z,1.77
2018-03-31T00:45:26.736Z,1.40
2018-03-31T00:47:53.817Z,1.00
2018-03-31T00:50:20.954Z,1.77
2018-03-31T00:52:48.029Z,1.20
2018-03-31T00:55:15.074Z,2.00
2018-03-31T00:57:42.163Z,2.20
2018-03-31T01:00:09.240Z,2.13
2018-03-31T01:02:36.274Z,1.87
2018-03-31T01:05:03.291Z,1.70
2018-03-31T01:07:30.366Z,1.40
2018-03-31T01:09:57.412Z,1.43
2018-03-31T01:12:24.427Z,1.97
2018-03-31T01:14:51.458Z,1.87
2018-03-31T01:17:18.486Z,2.43
2018-03-31T01:19:45.506Z,1.67
2018-03-31T01:22:12.523Z,1.17
2018-03-31T01:24:39.682Z,1.60
2018-03-31T01:27:06.721Z,1.30
2018-03-31T01:29:33.806Z,1.70
2018-03-31T01:32:00.835Z,1.50
2018-03-31T01:34:27.845Z,1.80
2018-03-31T01:36:54.877Z,2.20
2018-03-31T01:39:21.897Z,2.40
2018-03-31T01:41:48.944Z,1.67
2018-03-31T01:44:15.966Z,2.30
2018-03-31T01:46:42.994Z,3.47
2018-03-31T01:49:10.018Z,2.00
2018-03-31T01:51:37.103Z,2.10
2018-03-31T01:54:04.126Z,1.40
2018-03-31T01:56:31.141Z,2.07
2018-03-31T01:58:58.162Z,2.33
2018-03-31T02:01:25.242Z,1.40
2018-03-31T02:03:52.330Z,1.80
2018-03-31T02:06:19.424Z,3.00
2018-03-31T02:08:46.569Z,1.63
2018-03-31T02:11:13.585Z,1.73
2018-03-31T02:13:40.604Z,2.53
2018-03-31T02:16:07.638Z,2.23
2018-03-31T02:18:34.670Z,1.40
2018-03-31T02:21:01.755Z,2.07
2018-03-31T02:23:28.848Z,2.17
2018-03-31T02:25:55.975Z,2.67
2018-03-31T02:28:22.994Z,1.53
2018-03-31T02:30:50.071Z,2.17
2018-03-31T02:33:17.138Z,2.03
2018-03-31T02:35:44.216Z,0.90
2018-03-31T02:38:11.324Z,1.80
2018-03-31T02:40:38.382Z,2.03
2018-03-31T02:43:05.459Z,1.77
2018-03-31T02:45:32.542Z,2.33
2018-03-31T02:47:59.570Z,1.63
2018-03-31T02:50:26.598Z,1.67
2018-03-31T02:52:53.618Z,1.60
2018-03-31T02:55:20.650Z,1.30
2018-03-31T02:57:47.671Z,1.70
2018-03-31T03:00:14.803Z,2.00
2018-03-31T03:02:41.844Z,3.73
2018-03-31T03:05:08.931Z,1.87
2018-03-31T03:07:36.014Z,2.30
2018-03-31T03:10:03.039Z,1.83
2018-03-31T03:12:30.066Z,2.43
2018-03-31T03:14:57.083Z,1.83
2018-03-31T03:17:24.116Z,2.40
2018-03-31T03:19:51.147Z,2.33
2018-03-31T03:22:18.223Z,1.60
2018-03-31T03:24:45.358Z,2.60
2018-03-31T03:27:12.443Z,2.17
2018-03-31T03:29:39.462Z,2.40
2018-03-31T03:32:06.482Z,1.30
2018-03-31T03:34:33.512Z,2.07
2018-03-31T03:37:00.616Z,1.70
2018-03-31T03:39:27.712Z,2.33
2018-03-31T03:41:54.760Z,1.57
2018-03-31T03:44:21.782Z,1.80
2018-03-31T03:46:48.802Z,1.63
2018-03-31T03:49:15.882Z,1.00
2018-03-31T03:51:42.954Z,1.00
2018-03-31T03:54:10.029Z,1.30
2018-03-31T03:56:37.114Z,1.30
2018-03-31T03:59:04.134Z,1.37
2018-03-31T04:01:31.153Z,2.00
2018-03-31T04:03:58.178Z,2.00
2018-03-31T04:06:25.276Z,2.27
2018-03-31T04:08:52.361Z,1.17
2018-03-31T04:11:19.397Z,1.47
2018-03-31T04:13:46.426Z,0.90
2018-03-31T04:16:13.514Z,2.17
2018-03-31T04:18:40.578Z,2.13
2018-03-31T04:21:07.605Z,1.87
2018-03-31T04:23:34.621Z,1.63
2018-03-31T04:26:01.754Z,1.10
2018-03-31T04:28:28.787Z,2.17
2018-03-31T04:30:55.838Z,1.20
2018-03-31T04:33:22.870Z,1.97
2018-03-31T04:35:49.891Z,1.90
2018-03-31T04:38:16.980Z,2.27
2018-03-31T04:40:44.058Z,1.30
2018-03-31T04:43:11.199Z,1.83
2018-03-31T04:45:38.228Z,2.10
2018-03-31T04:48:05.311Z,1.70
2018-03-31T04:50:32.350Z,1.53
2018-03-31T04:52:59.472Z,1.90
2018-03-31T04:55:26.501Z,4.37
2018-03-31T04:57:53.527Z,3.50
2018-03-31T05:00:20.663Z,5.50
2018-03-31T05:02:47.734Z,3.03
2018-03-31T05:05:14.795Z,6.23
2018-03-31T05:07:41.822Z,4.50
2018-03-31T05:10:08.908Z,3.37
2018-03-31T05:12:35.982Z,3.57
2018-03-31T05:15:03.015Z,4.07
2018-03-31T05:17:30.099Z,2.77
2018-03-31T05:19:57.175Z,2.70
2018-03-31T05:22:24.239Z,2.20
2018-03-31T05:24:51.266Z,2.93
2018-03-31T05:27:18.334Z,3.53
2018-03-31T05:29:45.422Z,2.60
2018-03-31T05:32:12.441Z,1.70
2018-03-31T05:34:39.516Z,1.90
2018-03-31T05:37:06.616Z,1.87
2018-03-31T05:39:33.652Z,2.90
2018-03-31T05:42:00.682Z,2.00
2018-03-31T05:44:27.803Z,2.70
2018-03-31T05:46:54.847Z,3.03
2018-03-31T05:49:21.873Z,2.10
2018-03-31T05:51:48.912Z,2.27
2018-03-31T05:54:16.011Z,1.60
2018-03-31T05:56:43.031Z,2.23
2018-03-31T05:59:10.061Z,2.23
2018-03-31T06:01:37.139Z,2.30
2018-03-31T06:04:04.284Z,1.50
2018-03-31T06:06:31.367Z,1.70
2018-03-31T06:08:58.498Z,1.80
2018-03-31T06:11:25.525Z,1.73
2018-03-31T06:13:52.606Z,1.80
2018-03-31T06:16:19.708Z,1.93
2018-03-31T06:18:46.729Z,2.30
2018-03-31T06:21:13.865Z,2.23
2018-03-31T06:23:40.947Z,1.90
2018-03-31T06:26:07.958Z,2.07
2018-03-31T06:28:35.004Z,2.03
2018-03-31T06:31:02.030Z,1.50
2018-03-31T06:33:29.122Z,1.80
2018-03-31T06:35:56.207Z,1.37
2018-03-31T06:38:23.351Z,2.80
2018-03-31T06:40:50.441Z,1.73
2018-03-31T06:43:17.476Z,2.03
2018-03-31T06:45:44.571Z,1.77
2018-03-31T06:48:11.586Z,3.27
2018-03-31T06:50:38.620Z,1.50
2018-03-31T06:53:05.646Z,1.23
2018-03-31T06:55:32.728Z,2.13
2018-03-31T06:57:59.816Z,1.70
2018-03-31T07:00:26.898Z,1.60
2018-03-31T07:02:53.933Z,2.30
2018-03-31T07:05:20.967Z,1.60
2018-03-31T07:07:48.063Z,2.10
2018-03-31T07:10:15.082Z,2.40
2018-03-31T07:12:42.150Z,2.17
2018-03-31T07:15:09.174Z,2.27
2018-03-31T07:17:36.259Z,1.93
2018-03-31T07:20:03.382Z,2.00
2018-03-31T07:22:30.468Z,1.97
2018-03-31T07:24:57.505Z,1.30
2018-03-31T07:27:24.558Z,2.10
2018-03-31T07:29:51.694Z,1.67
2018-03-31T07:32:18.718Z,2.33
2018-03-31T07:34:45.815Z,1.77
2018-03-31T07:37:12.842Z,1.60
2018-03-31T07:39:39.930Z,1.43
2018-03-31T07:42:06.954Z,1.63
2018-03-31T07:44:33.988Z,1.87
2018-03-31T07:47:01.073Z,1.80
2018-03-31T07:49:28.099Z,1.27
2018-03-31T07:51:55.196Z,1.77
2018-03-31T07:54:22.230Z,1.40
2018-03-31T07:56:49.265Z,2.30
2018-03-31T07:59:16.359Z,1.87
2018-03-31T08:01:43.437Z,1.50
2018-03-31T08:04:10.568Z,1.83
2018-03-31T08:06:37.590Z,1.70
2018-03-31T08:09:04.666Z,1.60
2018-03-31T08:11:31.757Z,2.57
2018-03-31T08:13:58.812Z,1.20
2018-03-31T08:16:25.907Z,1.37
2018-03-31T08:18:53.582Z,1.30
2018-03-31T08:21:20.679Z,1.70
2018-03-31T08:23:47.780Z,1.80
2018-03-31T08:26:14.869Z,1.20
2018-03-31T08:28:41.906Z,1.30
2018-03-31T08:31:08.935Z,2.40
2018-03-31T08:33:35.958Z,1.87
2018-03-31T08:36:03.034Z,1.80
2018-03-31T08:38:30.103Z,1.47
2018-03-31T08:40:57.136Z,1.50
2018-03-31T08:43:24.163Z,10.83
2018-03-31T08:45:51.251Z,2.37
2018-03-31T08:48:18.289Z,6.30
2018-03-31T08:50:45.318Z,2.40
2018-03-31T08:53:12.342Z,2.40
2018-03-31T08:55:39.413Z,2.03
2018-03-31T08:58:06.488Z,1.80
2018-03-31T09:00:33.557Z,1.83
2018-03-31T09:03:00.587Z,2.00
2018-03-31T09:05:27.613Z,1.63
2018-03-31T09:07:54.707Z,1.90
2018-03-31T09:10:21.729Z,1.90
2018-03-31T09:12:48.811Z,1.30
2018-03-31T09:15:15.891Z,1.40
2018-03-31T09:17:42.912Z,1.10
2018-03-31T09:20:09.938Z,1.20
2018-03-31T09:22:36.963Z,1.53
2018-03-31T09:25:04.098Z,1.10
2018-03-31T09:27:31.183Z,1.20
2018-03-31T09:29:58.275Z,1.30
2018-03-31T09:32:25.355Z,1.27
2018-03-31T09:34:52.375Z,1.20
2018-03-31T09:37:19.403Z,0.97
2018-03-31T09:39:46.490Z,1.67
2018-03-31T09:42:13.588Z,1.47
2018-03-31T09:44:40.611Z,1.50
2018-03-31T09:47:07.700Z,1.60
2018-03-31T09:49:34.720Z,1.53
2018-03-31T09:52:01.806Z,1.20
2018-03-31T09:54:28.895Z,1.40
2018-03-31T09:56:55.923Z,1.70
2018-03-31T09:59:22.958Z,1.53
2018-03-31T10:01:49.976Z,3.00
2018-03-31T10:04:17.064Z,1.53
2018-03-31T10:06:44.090Z,0.97
2018-03-31T10:09:11.110Z,1.20
2018-03-31T10:11:38.199Z,1.10
2018-03-31T10:14:05.279Z,1.47
2018-03-31T10:16:32.371Z,1.23
2018-03-31T10:18:59.459Z,1.47
2018-03-31T10:21:26.529Z,1.10
2018-03-31T10:23:53.611Z,1.30
2018-03-31T10:26:20.699Z,1.40
2018-03-31T10:28:47.786Z,1.57
2018-03-31T10:31:14.806Z,1.77
2018-03-31T10:33:41.842Z,1.07
2018-03-31T10:36:08.918Z,1.17
2018-03-31T10:38:36.062Z,1.60
2018-03-31T10:41:04.017Z,1.20
2018-03-31T10:43:31.037Z,1.73
2018-03-31T10:45:59.292Z,1.87
2018-03-31T10:48:26.391Z,1.50
2018-03-31T10:50:53.443Z,1.73
2018-03-31T10:53:20.478Z,1.43
2018-03-31T10:55:47.734Z,1.77
2018-03-31T10:58:14.750Z,1.23
2018-03-31T11:00:41.788Z,1.80
2018-03-31T11:03:08.888Z,1.43
2018-03-31T11:05:36.020Z,1.10
2018-03-31T11:08:03.043Z,1.90
2018-03-31T11:10:30.063Z,1.53
2018-03-31T11:12:57.166Z,1.83
2018-03-31T11:15:24.311Z,1.40
2018-03-31T11:17:51.331Z,1.83
2018-03-31T11:20:18.363Z,0.90
2018-03-31T11:22:45.389Z,1.27
2018-03-31T11:25:12.475Z,1.07
2018-03-31T11:27:39.563Z,1.30
2018-03-31T11:30:06.640Z,0.90
2018-03-31T11:32:33.676Z,0.80
2018-03-31T11:35:00.703Z,0.90
2018-03-31T11:37:27.732Z,0.60
2018-03-31T11:39:54.810Z,1.00
2018-03-31T11:42:21.869Z,1.00
2018-03-31T11:44:48.894Z,0.70
2018-03-31T11:47:16.039Z,0.80
2018-03-31T11:49:43.130Z,1.07
2018-03-31T11:52:10.155Z,1.17
2018-03-31T11:54:37.256Z,1.13
2018-03-31T11:57:04.285Z,1.00
2018-03-31T11:59:31.312Z,1.10
2018-03-31T12:01:58.378Z,1.20
2018-03-31T12:04:25.468Z,1.60
2018-03-31T12:06:52.490Z,1.53
2018-03-31T12:09:19.517Z,1.10
2018-03-31T12:11:46.570Z,1.33
2018-03-31T12:14:13.659Z,1.20
2018-03-31T12:16:40.686Z,0.97
2018-03-31T12:19:07.767Z,1.00
2018-03-31T12:21:34.909Z,1.20
2018-03-31T12:24:01.991Z,1.70
2018-03-31T12:26:29.014Z,1.20
2018-03-31T12:28:56.117Z,1.00
2018-03-31T12:31:23.141Z,0.97
2018-03-31T12:33:50.169Z,1.03
2018-03-31T12:36:17.196Z,1.33
2018-03-31T12:38:44.274Z,1.20
2018-03-31T12:41:11.290Z,1.50
2018-03-31T12:43:38.389Z,1.10
2018-03-31T12:46:05.507Z,1.00
2018-03-31T12:48:32.538Z,1.30
2018-03-31T12:50:59.570Z,1.27
2018-03-31T12:53:26.585Z,1.67
2018-03-31T12:55:53.669Z,1.40
2018-03-31T12:58:20.685Z,1.47
2018-03-31T13:00:47.702Z,1.50
2018-03-31T13:03:14.727Z,1.17
2018-03-31T13:05:41.752Z,1.03
2018-03-31T13:08:08.839Z,1.43
2018-03-31T13:10:35.873Z,1.47
2018-03-31T13:13:03.006Z,1.20
2018-03-31T13:15:30.027Z,1.70
2018-03-31T13:17:57.047Z,1.20
2018-03-31T13:20:24.151Z,1.80
2018-03-31T13:22:51.179Z,1.53
2018-03-31T13:25:18.209Z,1.40
2018-03-31T13:27:45.298Z,1.40
2018-03-31T13:30:12.391Z,1.80
2018-03-31T13:32:40.379Z,1.53
2018-03-31T13:35:07.406Z,2.70
2018-03-31T13:37:34.452Z,1.43
2018-03-31T13:40:01.470Z,1.37
2018-03-31T13:42:28.497Z,1.40
2018-03-31T13:44:55.576Z,1.57
2018-03-31T13:47:22.662Z,1.60
2018-03-31T13:49:49.753Z,1.30
2018-03-31T13:52:16.770Z,1.57
2018-03-31T13:54:43.803Z,1.80
2018-03-31T13:57:10.834Z,1.90
2018-03-31T13:59:37.874Z,1.80
2018-03-31T14:02:04.897Z,1.60
2018-03-31T14:04:31.979Z,2.17
2018-03-31T14:06:59.058Z,1.93
2018-03-31T14:09:26.127Z,1.77
2018-03-31T14:11:53.158Z,1.57
2018-03-31T14:14:20.237Z,1.50
2018-03-31T14:16:47.265Z,1.33
2018-03-31T14:19:14.282Z,2.07
2018-03-31T14:21:41.359Z,1.30
2018-03-31T14:24:08.440Z,1.60
2018-03-31T14:26:35.454Z,1.63
2018-03-31T14:29:02.497Z,1.40
2018-03-31T14:31:29.515Z,1.37
2018-03-31T14:33:56.607Z,2.20
2018-03-31T14:36:23.687Z,1.50
2018-03-31T14:38:50.770Z,2.07
2018-03-31T14:41:17.854Z,1.80
2018-03-31T14:43:44.870Z,1.40
2018-03-31T14:46:11.894Z,1.90
2018-03-31T14:48:38.912Z,1.10
2018-03-31T14:51:06.003Z,2.00
2018-03-31T14:53:33.096Z,1.67
2018-03-31T14:56:00.174Z,1.17
2018-03-31T14:58:27.206Z,1.40
2018-03-31T15:00:55.162Z,1.63
2018-03-31T15:03:22.194Z,1.40
2018-03-31T15:05:49.213Z,2.57
2018-03-31T15:08:16.313Z,2.10
2018-03-31T15:10:43.338Z,2.20
2018-03-31T15:13:10.416Z,1.50
2018-03-31T15:15:37.433Z,1.97
2018-03-31T15:18:04.510Z,1.77
2018-03-31T15:20:31.553Z,1.30
2018-03-31T15:22:58.572Z,1.83
2018-03-31T15:25:25.598Z,1.63
2018-03-31T15:27:52.678Z,1.77
2018-03-31T15:30:19.801Z,1.50
2018-03-31T15:32:46.866Z,1.77
2018-03-31T15:35:13.956Z,1.70
2018-03-31T15:37:41.053Z,1.63
2018-03-31T15:40:08.195Z,2.50
2018-03-31T15:42:35.272Z,1.90
2018-03-31T15:45:02.359Z,1.97
2018-03-31T15:47:29.496Z,1.80
2018-03-31T15:49:56.525Z,2.27
2018-03-31T15:52:23.541Z,1.70
2018-03-31T15:54:50.576Z,2.30
2018-03-31T15:57:17.634Z,1.90
2018-03-31T15:59:44.727Z,1.30
2018-03-31T16:02:11.746Z,1.50
2018-03-31T16:04:38.822Z,1.20
2018-03-31T16:07:05.848Z,1.33
2018-03-31T16:09:32.865Z,1.43
2018-03-31T16:11:59.976Z,2.10
2018-03-31T16:14:27.059Z,2.07
2018-03-31T16:16:54.147Z,2.00
2018-03-31T16:19:21.162Z,1.43
2018-03-31T16:21:48.250Z,1.60
2018-03-31T16:24:15.270Z,2.00
2018-03-31T16:26:42.282Z,2.00
2018-03-31T16:29:09.310Z,2.10
2018-03-31T16:31:36.331Z,1.70
2018-03-31T16:34:03.359Z,1.50
2018-03-31T16:36:30.494Z,2.17
2018-03-31T16:38:57.579Z,1.60
2018-03-31T16:41:24.640Z,1.40
2018-03-31T16:43:51.718Z,1.80
2018-03-31T16:46:18.743Z,2.10
2018-03-31T16:48:45.765Z,2.00
2018-03-31T16:51:12.817Z,2.50
2018-03-31T16:53:39.902Z,2.00
2018-03-31T16:56:07.037Z,1.70
2018-03-31T16:58:34.066Z,4.73
2018-03-31T17:01:01.090Z,3.77
2018-03-31T17:03:28.120Z,3.33
2018-03-31T17:05:55.298Z,4.20
2018-03-31T17:08:22.395Z,3.93
2018-03-31T17:10:49.428Z,4.93
2018-03-31T17:13:16.503Z,5.00
2018-03-31T17:15:50.444Z,4.13
2018-03-31T17:18:17.552Z,4.30
2018-03-31T17:20:44.584Z,4.83
2018-03-31T17:23:11.605Z,3.37
2018-03-31T17:25:38.644Z,4.17
2018-03-31T17:28:05.797Z,4.93
2018-03-31T17:30:32.832Z,3.80
2018-03-31T17:32:59.991Z,4.20
2018-03-31T17:35:28.141Z,4.80
2018-03-31T17:37:55.223Z,3.90
2018-03-31T17:40:22.304Z,3.20
2018-03-31T17:42:49.395Z,3.60
2018-03-31T17:45:16.395Z,3.90
2018-03-31T17:47:43.422Z,3.17
2018-03-31T17:50:10.450Z,3.60
2018-03-31T17:52:37.609Z,3.60
2018-03-31T17:55:04.633Z,3.83
2018-03-31T17:57:31.730Z,2.90
2018-03-31T17:59:58.819Z,2.87
2018-03-31T18:02:25.923Z,3.10
2018-03-31T18:04:53.043Z,3.07
2018-03-31T18:07:20.102Z,3.67
2018-03-31T18:09:47.178Z,2.70
2018-03-31T18:12:14.208Z,3.57
2018-03-31T18:14:41.231Z,3.40
2018-03-31T18:17:08.258Z,4.00
2018-03-31T18:19:35.282Z,3.43
2018-03-31T18:22:05.520Z,3.57
2018-03-31T18:24:32.560Z,3.70
2018-03-31T18:26:59.646Z,3.80
2018-03-31T18:29:26.656Z,3.33
2018-03-31T18:31:53.679Z,3.50
2018-03-31T18:34:20.743Z,2.90
2018-03-31T18:36:47.768Z,3.83
2018-03-31T18:39:14.816Z,3.30
2018-03-31T18:41:41.837Z,3.43
2018-03-31T18:44:08.909Z,3.73
2018-03-31T18:46:35.932Z,3.73
2018-03-31T18:49:03.012Z,3.23
2018-03-31T18:51:30.086Z,3.70
2018-03-31T18:53:57.106Z,2.80
2018-03-31T18:56:24.130Z,2.73
2018-03-31T18:58:51.224Z,2.40
2018-03-31T19:01:18.299Z,3.10
2018-03-31T19:03:45.313Z,3.60
2018-03-31T19:06:12.395Z,2.97
2018-03-31T19:08:39.497Z,2.83
2018-03-31T19:11:06.528Z,3.00
2018-03-31T19:13:33.556Z,3.20
2018-03-31T19:16:00.581Z,4.47
2018-03-31T19:18:27.662Z,3.83
2018-03-31T19:20:54.698Z,3.30
2018-03-31T19:23:21.718Z,3.00
2018-03-31T19:25:48.857Z,2.83
2018-03-31T19:28:15.887Z,3.63
2018-03-31T19:30:48.454Z,3.40
2018-03-31T19:33:15.532Z,2.53
2018-03-31T19:35:48.166Z,3.00
2018-03-31T19:38:15.249Z,2.60
2018-03-31T19:40:42.334Z,2.70
2018-03-31T19:43:09.381Z,2.07
2018-03-31T19:45:36.397Z,3.00
2018-03-31T19:48:03.483Z,2.60
2018-03-31T19:50:30.513Z,2.83
2018-03-31T19:52:57.560Z,2.60
2018-03-31T19:55:24.661Z,2.60
2018-03-31T19:57:51.743Z,2.73
2018-03-31T20:00:18.770Z,2.40
2018-03-31T20:02:45.786Z,3.33
2018-03-31T20:05:12.827Z,2.83
2018-03-31T20:07:39.915Z,2.90
2018-03-31T20:10:07.013Z,3.13
2018-03-31T20:12:34.027Z,3.00
2018-03-31T20:15:01.098Z,3.27
2018-03-31T20:17:28.121Z,2.80
2018-03-31T20:19:55.146Z,3.20
2018-03-31T20:22:22.180Z,3.17
2018-03-31T20:24:49.301Z,2.67
2018-03-31T20:27:16.345Z,3.63
2018-03-31T20:29:43.383Z,2.77
2018-03-31T20:32:10.541Z,2.47
2018-03-31T20:34:37.668Z,3.20
2018-03-31T20:37:04.691Z,2.67
2018-03-31T20:39:31.721Z,2.50
2018-03-31T20:41:58.742Z,2.70
2018-03-31T20:44:25.767Z,2.47
2018-03-31T20:46:52.790Z,2.37
2018-03-31T20:49:19.881Z,2.30
2018-03-31T20:51:46.898Z,2.80
2018-03-31T20:54:13.965Z,2.13
2018-03-31T20:56:40.987Z,2.50
2018-03-31T20:59:08.015Z,2.60
2018-03-31T21:01:35.074Z,2.47
2018-03-31T21:04:02.103Z,2.50
2018-03-31T21:06:29.140Z,2.27
2018-03-31T21:08:56.223Z,1.93
2018-03-31T21:11:23.258Z,2.80
2018-03-31T21:13:50.286Z,2.70
2018-03-31T21:16:17.327Z,2.70
2018-03-31T21:18:44.391Z,2.00
2018-03-31T21:21:11.490Z,2.87
2018-03-31T21:23:38.509Z,2.47
2018-03-31T21:26:05.538Z,2.70
2018-03-31T21:28:32.558Z,2.53
2018-03-31T21:30:59.578Z,2.53
2018-03-31T21:33:26.616Z,2.57
2018-03-31T21:35:53.648Z,2.20
2018-03-31T21:38:20.673Z,2.70
2018-03-31T21:40:47.694Z,2.20
2018-03-31T21:43:14.824Z,1.90
2018-03-31T21:45:41.902Z,2.50
2018-03-31T21:48:08.923Z,1.80
2018-03-31T21:50:36.043Z,1.90
2018-03-31T21:53:03.039Z,2.10
2018-03-31T21:55:30.124Z,2.43
2018-03-31T21:57:57.142Z,2.10
2018-03-31T22:00:24.204Z,2.13
2018-03-31T22:02:51.225Z,2.10
2018-03-31T22:05:18.246Z,3.67
2018-03-31T22:07:45.263Z,3.00
2018-03-31T22:10:12.347Z,2.73
2018-03-31T22:12:39.370Z,3.07
2018-03-31T22:15:12.006Z,2.00
2018-03-31T22:17:39.070Z,2.23
2018-03-31T22:20:06.157Z,2.27
2018-03-31T22:22:33.191Z,2.90
2018-03-31T22:25:00.267Z,2.10
2018-03-31T22:27:27.295Z,2.10
2018-03-31T22:29:54.314Z,2.40
2018-03-31T22:32:21.346Z,1.90
2018-03-31T22:34:48.368Z,2.20
2018-03-31T22:37:15.454Z,2.43
2018-03-31T22:39:42.538Z,2.40
2018-03-31T22:42:09.562Z,1.80
2018-03-31T22:44:36.648Z,2.33
2018-03-31T22:47:03.671Z,2.60
2018-03-31T22:49:30.754Z,2.00
2018-03-31T22:51:57.833Z,2.20
2018-03-31T22:54:24.874Z,1.70
2018-03-31T22:56:51.889Z,1.90
2018-03-31T22:59:19.030Z,1.80
2018-03-31T23:01:46.124Z,1.67
2018-03-31T23:04:13.214Z,2.23
2018-03-31T23:06:40.246Z,2.27
2018-03-31T23:09:07.339Z,2.00
2018-03-31T23:11:34.418Z,1.83
2018-03-31T23:14:01.442Z,1.70
2018-03-31T23:16:28.564Z,2.07
2018-03-31T23:18:55.704Z,2.20
2018-03-31T23:21:22.817Z,2.20
2018-03-31T23:23:49.914Z,2.27
2018-03-31T23:26:16.955Z,1.77
2018-03-31T23:28:44.030Z,1.80
2018-03-31T23:31:11.111Z,2.23
2018-03-31T23:33:38.140Z,2.40
2018-03-31T23:36:05.171Z,2.00
2018-03-31T23:38:32.200Z,2.07
2018-03-31T23:40:59.233Z,1.40
2018-03-31T23:43:26.286Z,2.07
2018-03-31T23:45:53.387Z,2.00
2018-03-31T23:48:20.462Z,2.60
2018-03-31T23:50:47.486Z,2.27
2018-03-31T23:53:14.518Z,2.50
2018-03-31T23:55:41.598Z,2.10
2018-03-31T23:58:08.677Z,1.97
